createdAt,value
2022-09-14T00:01:28.698Z,22.88
2022-09-14T00:04:00.820Z,22.69
2022-09-14T00:06:29.246Z,22.92
2022-09-14T00:08:58.245Z,23.08
2022-09-14T00:11:27.323Z,22.98
2022-09-14T00:13:54.930Z,22.96
2022-09-14T00:16:24.515Z,22.24
2022-09-14T00:19:06.164Z,23.02
2022-09-14T00:21:38.371Z,22.60
2022-09-14T00:24:07.271Z,22.34
2022-09-14T00:26:34.475Z,22.26
2022-09-14T00:29:04.801Z,22.76
2022-09-14T00:31:37.305Z,22.64
2022-09-14T00:34:06.241Z,20.26
2022-09-14T00:36:37.560Z,22.94
2022-09-14T00:39:04.663Z,23.23
2022-09-14T00:41:34.753Z,23.12
2022-09-14T00:44:04.554Z,21.63
2022-09-14T00:46:41.473Z,22.08
2022-09-14T00:49:26.653Z,23.32
2022-09-14T00:51:58.883Z,22.72
2022-09-14T00:54:26.499Z,20.61
2022-09-14T00:56:54.463Z,21.83
2022-09-14T00:59:25.744Z,22.52
2022-09-14T01:01:52.501Z,22.78
2022-09-14T01:04:19.326Z,22.56
2022-09-14T01:07:07.381Z,22.77
2022-09-14T01:09:37.010Z,21.99
2022-09-14T01:12:14.504Z,21.56
2022-09-14T01:15:03.738Z,22.31
2022-09-14T01:17:57.248Z,22.21
2022-09-14T01:20:38.801Z,22.00
2022-09-14T01:23:29.963Z,22.48
2022-09-14T01:26:24.526Z,22.64
2022-09-14T01:29:32.108Z,22.13
2022-09-14T01:32:04.176Z,22.62
2022-09-14T01:34:59.118Z,22.47
2022-09-14T01:37:43.406Z,23.00
2022-09-14T01:40:29.327Z,21.70
2022-09-14T01:43:10.838Z,21.43
2022-09-14T01:45:42.291Z,21.75
2022-09-14T01:48:12.719Z,21.85
2022-09-14T01:50:48.668Z,21.19
2022-09-14T01:53:34.786Z,20.96
2022-09-14T01:56:23.490Z,21.04
2022-09-14T01:58:56.727Z,21.62
2022-09-14T02:01:48.509Z,21.89
2022-09-14T02:04:23.751Z,21.61
2022-09-14T02:06:50.960Z,20.56
2022-09-14T02:09:22.849Z,22.30
2022-09-14T02:11:49.755Z,22.25
2022-09-14T02:14:16.673Z,23.58
2022-09-14T02:16:46.257Z,23.30
2022-09-14T02:19:14.146Z,21.17
2022-09-14T02:21:41.029Z,23.26
2022-09-14T02:24:08.531Z,20.85
2022-09-14T02:26:35.738Z,22.30
2022-09-14T02:29:03.778Z,22.54
2022-09-14T02:31:40.606Z,22.43
2022-09-14T02:34:22.526Z,22.75
2022-09-14T02:37:15.627Z,22.18
2022-09-14T02:39:45.477Z,22.10
2022-09-14T02:42:25.878Z,22.68
2022-09-14T02:44:55.514Z,23.27
2022-09-14T02:47:38.113Z,23.23
2022-09-14T02:50:20.604Z,23.83
2022-09-14T02:53:21.510Z,22.66
2022-09-14T02:55:54.106Z,21.61
2022-09-14T02:58:21.758Z,23.08
2022-09-14T03:00:50.785Z,23.37
2022-09-14T03:03:20.376Z,23.28
2022-09-14T03:05:47.772Z,23.20
2022-09-14T03:08:14.925Z,22.64
2022-09-14T03:10:43.943Z,21.77
2022-09-14T03:13:11.741Z,21.08
2022-09-14T03:15:38.543Z,20.39
2022-09-14T03:18:09.986Z,20.24
2022-09-14T03:20:39.582Z,21.06
2022-09-14T03:23:09.100Z,22.91
2022-09-14T03:25:41.370Z,22.77
2022-09-14T03:28:10.039Z,23.77
2022-09-14T03:30:37.417Z,22.89
2022-09-14T03:33:04.447Z,23.07
2022-09-14T03:35:31.562Z,23.18
2022-09-14T03:37:59.793Z,22.83
2022-09-14T03:40:27.440Z,21.23
2022-09-14T03:42:54.654Z,20.10
2022-09-14T03:45:21.930Z,21.12
2022-09-14T03:47:49.907Z,21.15
2022-09-14T03:50:18.111Z,21.45
2022-09-14T03:52:45.145Z,20.90
2022-09-14T03:55:11.891Z,22.37
2022-09-14T03:57:38.886Z,21.47
2022-09-14T04:00:07.186Z,22.30
2022-09-14T04:02:38.350Z,21.09
2022-09-14T04:05:05.740Z,21.71
2022-09-14T04:07:33.136Z,21.53
2022-09-14T04:09:59.834Z,21.28
2022-09-14T04:12:26.734Z,22.62
2022-09-14T04:14:53.563Z,21.43
2022-09-14T04:17:20.406Z,22.65
2022-09-14T04:19:47.239Z,22.78
2022-09-14T04:22:13.947Z,21.90
2022-09-14T04:24:40.689Z,22.43
2022-09-14T04:27:07.494Z,22.39
2022-09-14T04:29:34.403Z,22.76
2022-09-14T04:32:01.286Z,22.72
2022-09-14T04:34:28.233Z,22.97
2022-09-14T04:36:55.359Z,22.12
2022-09-14T04:39:22.654Z,23.20
2022-09-14T04:41:49.525Z,22.48
2022-09-14T04:44:16.534Z,22.22
2022-09-14T04:46:46.537Z,22.84
2022-09-14T04:49:18.952Z,22.43
2022-09-14T04:51:45.777Z,22.29
2022-09-14T04:54:16.024Z,21.43
2022-09-14T04:56:43.183Z,20.77
2022-09-14T04:59:10.961Z,20.72
2022-09-14T05:01:40.370Z,20.10
2022-09-14T05:04:08.679Z,20.77
2022-09-14T05:06:37.927Z,22.23
2022-09-14T05:09:07.627Z,21.08
2022-09-14T05:11:36.278Z,19.64
2022-09-14T05:14:04.036Z,21.97
2022-09-14T05:16:33.718Z,20.50
2022-09-14T05:19:04.938Z,20.79
2022-09-14T05:21:35.887Z,22.95
2022-09-14T05:24:08.915Z,20.29
2022-09-14T05:26:36.397Z,21.09
2022-09-14T05:29:03.923Z,22.44
2022-09-14T05:31:32.140Z,22.54
2022-09-14T05:33:59.144Z,23.06
2022-09-14T05:36:26.551Z,22.28
2022-09-14T05:38:53.359Z,20.73
2022-09-14T05:41:20.218Z,21.73
2022-09-14T05:43:46.960Z,22.79
2022-09-14T05:46:15.901Z,20.17
2022-09-14T05:48:43.210Z,22.56
2022-09-14T05:51:14.089Z,21.98
2022-09-14T05:53:41.466Z,20.11
2022-09-14T05:56:13.921Z,21.09
2022-09-14T05:58:41.578Z,21.69
2022-09-14T06:01:19.027Z,21.27
2022-09-14T06:03:47.060Z,21.14
2022-09-14T06:06:17.017Z,21.73
2022-09-14T06:08:44.761Z,22.27
2022-09-14T06:11:15.770Z,21.54
2022-09-14T06:13:43.083Z,21.14
2022-09-14T06:16:16.222Z,22.21
2022-09-14T06:18:44.582Z,23.27
2022-09-14T06:21:15.318Z,22.76
2022-09-14T06:23:42.813Z,21.10
2022-09-14T06:26:10.241Z,21.20
2022-09-14T06:28:37.474Z,22.00
2022-09-14T06:31:07.580Z,23.57
2022-09-14T06:33:34.889Z,22.60
2022-09-14T06:36:05.418Z,22.92
2022-09-14T06:38:33.078Z,23.50
2022-09-14T06:41:02.804Z,23.68
2022-09-14T06:43:32.750Z,22.41
2022-09-14T06:46:05.521Z,22.84
2022-09-14T06:48:35.750Z,21.45
2022-09-14T06:51:19.462Z,22.52
2022-09-14T06:53:47.772Z,22.40
2022-09-14T06:56:15.273Z,21.90
2022-09-14T06:58:42.380Z,22.30
2022-09-14T07:01:14.960Z,21.01
2022-09-14T07:03:43.922Z,21.71
2022-09-14T07:06:13.934Z,20.49
2022-09-14T07:08:41.089Z,20.70
2022-09-14T07:11:10.062Z,21.58
2022-09-14T07:13:37.175Z,21.11
2022-09-14T07:16:04.967Z,21.76
2022-09-14T07:18:32.953Z,22.12
2022-09-14T07:21:10.612Z,23.61
2022-09-14T07:23:41.069Z,21.58
2022-09-14T07:26:11.020Z,22.06
2022-09-14T07:28:39.254Z,22.95
2022-09-14T07:31:15.471Z,24.16
2022-09-14T07:33:42.242Z,25.44
2022-09-14T07:36:11.146Z,24.58
2022-09-14T07:38:53.637Z,23.34
2022-09-14T07:41:22.719Z,23.22
2022-09-14T07:43:55.508Z,23.42
2022-09-14T07:46:23.480Z,24.53
2022-09-14T07:48:56.903Z,25.78
2022-09-14T07:51:24.561Z,24.89
2022-09-14T07:53:51.629Z,25.96
2022-09-14T07:56:18.536Z,27.15
2022-09-14T07:58:45.430Z,23.62
2022-09-14T08:01:15.330Z,25.70
2022-09-14T08:03:45.860Z,25.47
2022-09-14T08:06:14.157Z,25.00
2022-09-14T08:08:43.693Z,25.20
2022-09-14T08:11:16.400Z,23.97
2022-09-14T08:13:46.436Z,25.00
2022-09-14T08:16:13.920Z,24.50
2022-09-14T08:18:41.166Z,25.04
2022-09-14T08:21:13.402Z,23.97
2022-09-14T08:23:41.268Z,26.34
2022-09-14T08:26:09.768Z,30.27
2022-09-14T08:28:37.213Z,27.38
2022-09-14T08:31:09.025Z,27.89
2022-09-14T08:33:38.006Z,27.94
2022-09-14T08:36:06.320Z,28.23
2022-09-14T08:38:33.210Z,27.61
2022-09-14T08:41:10.862Z,30.49
2022-09-14T08:43:39.680Z,27.22
2022-09-14T08:46:12.950Z,27.63
2022-09-14T08:48:46.516Z,29.44
2022-09-14T08:51:13.278Z,27.32
2022-09-14T08:53:41.822Z,28.39
2022-09-14T08:56:19.253Z,28.95
2022-09-14T08:58:51.802Z,29.70
2022-09-14T09:01:30.071Z,27.41
2022-09-14T09:04:08.933Z,29.34
2022-09-14T09:06:54.424Z,28.65
2022-09-14T09:09:27.524Z,27.37
2022-09-14T09:11:56.138Z,30.62
2022-09-14T09:14:31.324Z,28.77
2022-09-14T09:17:01.182Z,27.64
2022-09-14T09:19:41.743Z,29.52
2022-09-14T09:22:15.094Z,28.39
2022-09-14T09:24:51.173Z,28.60
2022-09-14T09:27:17.906Z,29.39
2022-09-14T09:29:45.088Z,27.37
2022-09-14T09:32:25.031Z,27.66
2022-09-14T09:35:25.086Z,26.71
2022-09-14T09:38:01.090Z,27.88
2022-09-14T09:40:41.408Z,28.77
2022-09-14T09:43:11.401Z,29.16
2022-09-14T09:46:01.870Z,31.21
2022-09-14T09:48:37.931Z,28.03
2022-09-14T09:51:07.892Z,28.76
2022-09-14T09:53:38.911Z,29.72
2022-09-14T09:56:06.213Z,28.63
2022-09-14T09:58:38.497Z,27.58
2022-09-14T10:01:12.415Z,29.62
2022-09-14T10:03:41.095Z,28.94
2022-09-14T10:06:13.171Z,31.90
2022-09-14T10:08:43.310Z,30.42
2022-09-14T10:11:37.876Z,28.63
2022-09-14T10:14:17.729Z,28.45
2022-09-14T10:16:45.069Z,27.59
2022-09-14T10:19:21.318Z,28.59
2022-09-14T10:22:17.479Z,29.34
2022-09-14T10:25:22.213Z,28.32
2022-09-14T10:28:21.326Z,30.57
2022-09-14T10:30:57.480Z,27.78
2022-09-14T10:33:24.210Z,28.20
2022-09-14T10:35:57.009Z,29.46
2022-09-14T10:38:32.021Z,29.87
2022-09-14T10:41:10.247Z,30.20
2022-09-14T10:44:16.361Z,29.84
2022-09-14T10:46:49.580Z,30.27
2022-09-14T10:49:28.509Z,31.56
2022-09-14T10:52:05.601Z,30.64
2022-09-14T10:54:44.214Z,30.30
2022-09-14T10:57:26.246Z,29.66
2022-09-14T11:00:03.480Z,30.05
2022-09-14T11:02:39.395Z,30.67
2022-09-14T11:05:30.765Z,29.30
2022-09-14T11:08:02.025Z,30.50
2022-09-14T11:11:11.534Z,32.32
2022-09-14T11:13:59.873Z,31.97
2022-09-14T11:16:41.590Z,31.17
2022-09-14T11:19:52.862Z,32.52
2022-09-14T11:22:38.548Z,32.28
2022-09-14T11:25:20.804Z,33.12
2022-09-14T11:28:03.740Z,31.66
2022-09-14T11:30:41.520Z,30.43
2022-09-14T11:33:19.158Z,29.77
2022-09-14T11:35:54.927Z,30.06
2022-09-14T11:38:27.343Z,30.91
2022-09-14T11:41:30.199Z,31.06
2022-09-14T11:44:19.464Z,33.39
2022-09-14T11:46:52.347Z,29.95
2022-09-14T11:49:56.722Z,32.63
2022-09-14T11:52:26.599Z,31.13
2022-09-14T11:54:54.568Z,30.97
2022-09-14T11:57:26.049Z,31.66
2022-09-14T12:00:18.813Z,31.71
2022-09-14T12:02:59.786Z,32.38
2022-09-14T12:05:32.442Z,30.19
2022-09-14T12:08:00.571Z,32.86
2022-09-14T12:10:28.532Z,30.99
2022-09-14T12:13:19.959Z,30.69
2022-09-14T12:15:46.772Z,30.82
2022-09-14T12:18:22.512Z,30.85
2022-09-14T12:21:18.389Z,33.12
2022-09-14T12:23:52.052Z,32.00
2022-09-14T12:26:24.395Z,29.91
2022-09-14T12:28:56.131Z,30.63
2022-09-14T12:31:44.193Z,30.30
2022-09-14T12:34:19.967Z,30.09
2022-09-14T12:36:46.662Z,28.48
2022-09-14T12:39:22.216Z,30.45
2022-09-14T12:41:48.872Z,30.50
2022-09-14T12:44:32.995Z,31.80
2022-09-14T12:47:25.404Z,28.91
2022-09-14T12:49:58.141Z,29.06
2022-09-14T12:52:50.831Z,28.36
2022-09-14T12:55:36.944Z,30.98
2022-09-14T12:58:25.729Z,30.90
2022-09-14T13:01:14.146Z,30.13
2022-09-14T13:03:50.457Z,30.07
2022-09-14T13:06:18.392Z,30.58
2022-09-14T13:08:57.736Z,28.14
2022-09-14T13:11:31.032Z,29.14
2022-09-14T13:13:59.370Z,28.47
2022-09-14T13:16:47.984Z,30.29
2022-09-14T13:19:25.479Z,29.42
2022-09-14T13:21:56.546Z,30.26
2022-09-14T13:24:42.552Z,30.05
2022-09-14T13:27:21.763Z,31.17
2022-09-14T13:29:57.104Z,31.21
2022-09-14T13:32:24.172Z,31.33
2022-09-14T13:34:52.770Z,30.06
2022-09-14T13:37:21.193Z,31.67
2022-09-14T13:42:48.678Z,31.86
2022-09-14T13:45:15.458Z,30.99
2022-09-14T13:47:42.852Z,30.76
2022-09-14T13:50:13.853Z,30.42
2022-09-14T13:53:01.174Z,32.48
2022-09-14T13:55:43.857Z,28.74
2022-09-14T13:58:32.557Z,30.48
2022-09-14T14:01:04.898Z,28.71
2022-09-14T14:03:34.562Z,29.45
2022-09-14T14:06:16.756Z,29.45
2022-09-14T14:08:44.239Z,28.50
2022-09-14T14:11:11.155Z,29.18
2022-09-14T14:13:38.375Z,30.23
2022-09-14T14:16:24.021Z,30.04
2022-09-14T14:18:52.441Z,28.72
2022-09-14T14:21:22.363Z,30.07
2022-09-14T14:24:12.074Z,29.32
2022-09-14T14:26:38.578Z,29.22
2022-09-14T14:29:09.753Z,29.47
2022-09-14T14:31:36.641Z,29.80
2022-09-14T14:34:17.080Z,30.94
2022-09-14T14:36:44.257Z,27.82
2022-09-14T14:39:11.377Z,27.39
2022-09-14T14:41:38.367Z,29.09
2022-09-14T14:44:07.470Z,28.99
2022-09-14T14:46:34.314Z,27.77
2022-09-14T14:49:01.023Z,25.53
2022-09-14T14:51:27.772Z,27.21
2022-09-14T14:53:54.932Z,27.64
2022-09-14T14:56:21.898Z,27.32
2022-09-14T14:58:48.691Z,26.65
2022-09-14T15:01:16.422Z,25.97
2022-09-14T15:03:43.714Z,26.19
2022-09-14T15:06:28.660Z,27.73
2022-09-14T15:08:56.650Z,27.27
2022-09-14T15:11:24.379Z,27.34
2022-09-14T15:13:51.138Z,26.08
2022-09-14T15:16:18.084Z,27.33
2022-09-14T15:18:45.245Z,25.89
2022-09-14T15:21:12.112Z,25.29
2022-09-14T15:23:39.077Z,25.91
2022-09-14T15:26:06.099Z,26.53
2022-09-14T15:28:35.861Z,27.26
2022-09-14T15:31:07.129Z,25.15
2022-09-14T15:33:34.815Z,25.89
2022-09-14T15:36:01.773Z,24.97
2022-09-14T15:38:28.833Z,25.23
2022-09-14T15:40:55.889Z,24.98
2022-09-14T15:43:23.170Z,24.80
2022-09-14T15:45:50.329Z,24.06
2022-09-14T15:48:18.488Z,24.33
2022-09-14T15:50:47.176Z,23.97
2022-09-14T15:53:17.115Z,23.25
2022-09-14T15:55:45.343Z,25.24
2022-09-14T15:58:12.528Z,24.16
2022-09-14T16:00:44.413Z,23.37
2022-09-14T16:03:11.391Z,23.86
2022-09-14T16:05:41.206Z,23.66
2022-09-14T16:08:07.913Z,23.36
2022-09-14T16:10:34.777Z,22.55
2022-09-14T16:13:01.586Z,23.84
2022-09-14T16:15:28.644Z,24.47
2022-09-14T16:17:56.328Z,25.38
2022-09-14T16:20:23.352Z,25.58
2022-09-14T16:22:51.425Z,25.17
2022-09-14T16:25:18.285Z,25.82
2022-09-14T16:27:45.613Z,25.67
2022-09-14T16:30:12.981Z,27.40
2022-09-14T16:32:40.317Z,26.30
2022-09-14T16:35:08.246Z,25.93
2022-09-14T16:37:35.748Z,27.56
2022-09-14T16:40:04.209Z,27.27
2022-09-14T16:42:31.380Z,28.11
2022-09-14T16:44:58.142Z,28.57
2022-09-14T16:47:25.803Z,26.15
2022-09-14T16:49:53.273Z,26.20
2022-09-14T16:52:20.140Z,27.41
2022-09-14T16:54:46.891Z,26.95
2022-09-14T16:57:13.815Z,27.32
2022-09-14T16:59:40.901Z,27.04
2022-09-14T17:02:11.041Z,27.93
2022-09-14T17:04:37.961Z,26.85
2022-09-14T17:07:04.953Z,25.00
2022-09-14T17:09:32.901Z,27.29
2022-09-14T17:12:00.267Z,28.09
2022-09-14T17:14:32.152Z,28.41
2022-09-14T17:17:00.117Z,27.60
2022-09-14T17:19:27.541Z,26.38
2022-09-14T17:21:54.725Z,27.97
2022-09-14T17:24:21.864Z,28.30
2022-09-14T17:26:48.877Z,28.69
2022-09-14T17:29:16.202Z,27.51
2022-09-14T17:31:45.045Z,25.23
2022-09-14T17:34:13.869Z,25.72
2022-09-14T17:36:41.215Z,27.04
2022-09-14T17:39:11.649Z,27.77
2022-09-14T17:41:39.783Z,27.54
2022-09-14T17:44:09.864Z,27.74
2022-09-14T17:46:43.232Z,26.08
2022-09-14T17:49:16.317Z,25.49
2022-09-14T17:51:45.938Z,26.18
2022-09-14T17:54:12.960Z,26.64
2022-09-14T17:56:40.049Z,27.97
2022-09-14T17:59:11.867Z,27.66
2022-09-14T18:01:38.640Z,25.64
2022-09-14T18:04:07.617Z,24.10
2022-09-14T18:06:38.354Z,23.79
2022-09-14T18:09:09.233Z,25.77
2022-09-14T18:11:36.837Z,25.91
2022-09-14T18:14:04.926Z,26.08
2022-09-14T18:16:33.193Z,24.41
2022-09-14T18:19:00.631Z,23.82
2022-09-14T18:21:27.421Z,25.33
2022-09-14T18:23:55.204Z,22.07
2022-09-14T18:26:23.486Z,24.13
2022-09-14T18:28:53.487Z,24.05
2022-09-14T18:31:20.272Z,24.15
2022-09-14T18:34:01.936Z,23.88
2022-09-14T18:36:29.955Z,23.17
2022-09-14T18:38:58.757Z,23.94
2022-09-14T18:41:29.021Z,23.62
2022-09-14T18:43:56.256Z,23.50
2022-09-14T18:46:27.628Z,21.91
2022-09-14T18:48:57.173Z,22.49
2022-09-14T18:51:23.910Z,23.64
2022-09-14T18:53:57.233Z,24.58
2022-09-14T18:56:24.491Z,25.17
2022-09-14T18:58:51.323Z,23.94
2022-09-14T19:01:18.308Z,24.61
2022-09-14T19:03:45.491Z,23.23
2022-09-14T19:06:15.212Z,22.61
2022-09-14T19:08:42.891Z,23.93
2022-09-14T19:11:12.678Z,25.16
2022-09-14T19:13:39.707Z,25.24
2022-09-14T19:16:14.647Z,25.06
2022-09-14T19:18:42.762Z,25.14
2022-09-14T19:21:12.297Z,26.77
2022-09-14T19:23:39.610Z,25.52
2022-09-14T19:26:09.625Z,25.55
2022-09-14T19:28:37.417Z,23.88
2022-09-14T19:31:14.319Z,23.42
2022-09-14T19:33:45.197Z,22.87
2022-09-14T19:36:22.350Z,25.36
2022-09-14T19:38:51.362Z,25.52
2022-09-14T19:41:19.346Z,24.19
2022-09-14T19:43:46.826Z,23.65
2022-09-14T19:46:16.770Z,22.99
2022-09-14T19:48:44.242Z,24.70
2022-09-14T19:51:15.301Z,25.00
2022-09-14T19:53:43.842Z,25.41
2022-09-14T19:56:13.576Z,25.06
2022-09-14T19:58:43.155Z,23.42
2022-09-14T20:01:11.239Z,23.17
2022-09-14T20:03:39.009Z,23.33
2022-09-14T20:06:09.840Z,23.32
2022-09-14T20:08:37.604Z,25.15
2022-09-14T20:11:15.601Z,25.14
2022-09-14T20:13:44.760Z,24.18
2022-09-14T20:16:41.010Z,22.92
2022-09-14T20:19:13.851Z,25.40
2022-09-14T20:21:41.522Z,24.89
2022-09-14T20:24:16.186Z,24.36
2022-09-14T20:26:48.434Z,24.78
2022-09-14T20:29:17.985Z,25.49
2022-09-14T20:31:45.713Z,25.35
2022-09-14T20:34:14.152Z,23.19
2022-09-14T20:36:41.367Z,25.68
2022-09-14T20:39:09.147Z,24.21
2022-09-14T20:41:36.454Z,24.70
2022-09-14T20:44:04.363Z,23.90
2022-09-14T20:46:37.348Z,25.83
2022-09-14T20:49:05.754Z,26.27
2022-09-14T20:51:32.621Z,25.76
2022-09-14T20:53:59.370Z,25.60
2022-09-14T20:56:28.774Z,26.77
2022-09-14T20:58:59.087Z,23.77
2022-09-14T21:01:28.672Z,26.18
2022-09-14T21:03:55.713Z,22.85
2022-09-14T21:06:25.758Z,24.72
2022-09-14T21:08:52.660Z,26.00
2022-09-14T21:11:25.306Z,25.18
2022-09-14T21:13:54.225Z,26.80
2022-09-14T21:16:30.431Z,25.60
2022-09-14T21:19:00.096Z,26.88
2022-09-14T21:21:27.809Z,26.85
2022-09-14T21:23:56.686Z,27.26
2022-09-14T21:26:25.526Z,26.83
2022-09-14T21:28:57.764Z,26.19
2022-09-14T21:31:26.792Z,27.07
2022-09-14T21:33:55.645Z,27.42
2022-09-14T21:36:25.564Z,26.73
2022-09-14T21:38:59.703Z,26.19
2022-09-14T21:41:28.757Z,25.59
2022-09-14T21:43:56.966Z,25.60
2022-09-14T21:46:24.886Z,25.41
2022-09-14T21:48:52.667Z,25.08
2022-09-14T21:51:27.680Z,25.11
2022-09-14T21:53:59.846Z,25.47
2022-09-14T21:56:29.021Z,22.09
2022-09-14T21:59:00.884Z,20.76
2022-09-14T22:01:28.328Z,21.58
2022-09-14T22:03:56.070Z,22.08
2022-09-14T22:06:24.838Z,22.84
2022-09-14T22:08:52.543Z,23.83
2022-09-14T22:11:25.018Z,24.32
2022-09-14T22:14:00.927Z,22.85
2022-09-14T22:16:29.989Z,23.46
2022-09-14T22:18:59.390Z,23.87
2022-09-14T22:21:29.027Z,23.08
2022-09-14T22:23:59.452Z,20.76
2022-09-14T22:26:28.757Z,21.46
2022-09-14T22:28:57.399Z,22.53
2022-09-14T22:31:24.726Z,23.27
2022-09-14T22:33:54.141Z,24.31
2022-09-14T22:36:21.157Z,23.26
2022-09-14T22:38:48.059Z,23.41
2022-09-14T22:41:20.750Z,23.54
2022-09-14T22:43:47.525Z,22.65
2022-09-14T22:46:16.588Z,22.32
2022-09-14T22:48:44.196Z,23.68
2022-09-14T22:51:15.013Z,23.33
2022-09-14T22:53:42.579Z,23.75
2022-09-14T22:56:31.362Z,22.93
2022-09-14T22:59:00.245Z,24.55
2022-09-14T23:01:30.278Z,23.90
2022-09-14T23:03:59.890Z,23.79
2022-09-14T23:06:32.778Z,23.22
2022-09-14T23:09:00.516Z,25.05
2022-09-14T23:11:28.447Z,21.40
2022-09-14T23:13:55.638Z,24.20
2022-09-14T23:16:26.093Z,24.31
2022-09-14T23:19:01.563Z,23.89
2022-09-14T23:21:30.398Z,22.75
2022-09-14T23:24:03.208Z,25.91
2022-09-14T23:26:30.819Z,25.76
2022-09-14T23:29:00.637Z,24.78
2022-09-14T23:31:29.541Z,25.79
2022-09-14T23:33:57.906Z,25.19
2022-09-14T23:36:25.218Z,24.53
2022-09-14T23:38:52.855Z,22.93
2022-09-14T23:41:21.842Z,23.35
2022-09-14T23:43:49.126Z,24.80
2022-09-14T23:46:16.416Z,25.50
2022-09-14T23:48:44.050Z,25.47
2022-09-14T23:51:12.304Z,26.06
2022-09-14T23:53:40.530Z,25.01
2022-09-14T23:56:07.870Z,24.11
2022-09-14T23:58:35.133Z,25.87
